• Join FlightAware (Why Join?)
  • Login
  • US Flag 
 
08:21PM EST


 

Airport Tracker/Info


-or-


 

Live Flight TrackerFlight Track Log ✈ SWA268 ✈ 21-Apr-2013 ✈ KTPA - KBUF

Flight Track Log - Related Links

Times and Time Zones

All times are in EDT time to prevent confusion due to time zone crossing. See the SWA268 flight status page for this flight to view local times or setup timezone preferences in your user account.

Time Position Orientation Groundspeed Altitude Reporting Facility
EDT Latitude Longitude Course Direction KTS MPH feet Rate Location/Type
08:21PM 28.1286 -82.5419 357° North 202 232 5,000  Level Jacksonville Center
08:22PM 28.2036 -82.5486 356° North 251 289 8,000 2,820 Climbing Jacksonville Center
08:23PM 28.2872 -82.5578 354° North 280 322 10,700 3,180 Climbing Jacksonville Center
08:24PM 28.3769 -82.5647 356° North 301 346 14,400 3,300 Climbing Jacksonville Center
08:25PM 28.4708 -82.5714 356° North 324 373 17,300 2,820 Climbing Jacksonville Center
08:26PM 28.5647 -82.5831 354° North 330 380 20,100 2,340 Climbing Jacksonville Center
08:27PM 28.6650 -82.5919 356° North 342 394 22,000 1,800 Climbing Jacksonville Center
08:28PM 28.7611 -82.6014 355° North 370 426 23,700 1,800 Climbing Jacksonville Center
08:29PM 28.8758 -82.6175 353° North 391 450 25,600 1,980 Climbing Jacksonville Center
08:30PM 28.9886 -82.6339 353° North 402 463 27,700 2,220 Climbing Jacksonville Center
08:31PM 29.1014 -82.6478 354° North 402 463 30,100 1,860 Climbing Jacksonville Center
08:32PM 29.2142 -82.6642 353° North 408 470 31,500 900 Climbing Jacksonville Center
08:33PM 29.3331 -82.6806 353° North 413 475 32,000 240 Climbing Jacksonville Center
08:34PM 29.4606 -82.6922 355° North 433 498 32,000 360 Level Jacksonville Center
08:35PM 29.5983 -82.6967 358° North 464 534 32,800 960 Climbing Jacksonville Center
08:36PM 29.7297 -82.6917 North 478 550 34,000 840 Climbing Jacksonville Center
08:37PM 29.8656 -82.6939 359° North 478 550 34,500 1,080 Climbing Jacksonville Center
08:38PM 29.9992 -82.6936 360° North 478 550 36,200 1,200 Climbing Jacksonville Center
08:39PM 30.1328 -82.6883 North 473 544 37,000 360 Climbing Jacksonville Center
08:40PM 30.2642 -82.6858 North 473 544 37,000  Level Jacksonville Center
08:41PM 30.3978 -82.6856 360° North 473 544 37,000  Level Jacksonville Center
08:42PM 30.5294 -82.6828 North 473 544 37,000  Level Jacksonville Center
08:43PM 30.6589 -82.6608 North 473 544 37,000  Level Jacksonville Center
08:44PM 30.7903 -82.6386 North 473 544 37,000  Level Jacksonville Center
08:45PM 30.9239 -82.6164 North 478 550 37,000  Level Jacksonville Center
08:46PM 31.0553 -82.5944 North 478 550 37,000  Level Jacksonville Center
08:47PM 31.1869 -82.5697 North 478 550 37,000  Level Jacksonville Center
08:48PM 31.3183 -82.5497 North 478 550 37,000  Level Jacksonville Center
08:49PM 31.4478 -82.5225 10° North 484 557 37,000  Level Jacksonville Center
08:51PM 31.6681 -82.4869 North 492 566 37,000  Level Atlanta Center
08:52PM 31.8033 -82.4675 North 492 566 37,000  Level Atlanta Center
08:53PM 31.9389 -82.4456 North 487 560 37,000  Level Atlanta Center
08:54PM 32.0700 -82.4261 North 482 555 37,000  Level Atlanta Center
08:55PM 32.2075 -82.4039 North 482 555 37,000  Level Atlanta Center
08:56PM 32.3242 -82.3822 North 482 555 37,000  Level Atlanta Center
08:57PM 32.4594 -82.3650 North 482 555 37,000  Level Atlanta Center
08:58PM 32.5950 -82.3450 North 482 555 37,000  Level Atlanta Center
08:59PM 32.7303 -82.3203 North 482 555 37,000  Level Atlanta Center
09:00PM 32.8656 -82.2978 North 482 555 37,000  Level Atlanta Center
09:01PM 33.0008 -82.2778 North 482 555 37,000  Level Atlanta Center
09:02PM 33.1322 -82.2553 North 482 555 37,000  Level Atlanta Center
09:03PM 33.2778 -82.2325 North 482 555 37,000  Level Atlanta Center
09:04PM 33.4092 -82.2097 North 476 548 37,000  Level Atlanta Center
09:05PM 33.5403 -82.1869 North 476 548 37,000  Level Atlanta Center
09:06PM 33.6714 -82.1642 North 476 548 37,000  Level Atlanta Center
09:07PM 33.8047 -82.1439 North 476 548 37,000  Level Atlanta Center
09:08PM 33.9358 -82.1208 North 476 548 37,000  Level Atlanta Center
09:09PM 34.0650 -82.1003 North 476 548 37,000  Level Atlanta Center
09:10PM 34.1814 -82.0803 North 476 548 37,000  Level Atlanta Center
09:11PM 34.3147 -82.0544 North 471 542 37,000  Level Atlanta Center
09:12PM 34.4417 -82.0339 North 471 542 37,000  Level Atlanta Center
09:13PM 34.5728 -82.0106 North 471 542 37,000  Level Atlanta Center
09:14PM 34.7036 -81.9872 North 471 542 37,000  Level Atlanta Center
09:15PM 34.8347 -81.9636 North 471 542 37,000  Level Atlanta Center
09:16PM 34.9806 -81.9397 North 471 542 37,000  Level Atlanta Center
09:17PM 35.1117 -81.9289 North 471 542 37,000  Level Atlanta Center
09:18PM 35.2389 -81.9231 North 458 527 37,000  Level Atlanta Center
09:19PM 35.3703 -81.9144 North 458 527 37,000  Level Atlanta Center
09:20PM 35.4994 -81.9086 North 458 527 37,000  Level Atlanta Center
09:21PM 35.6286 -81.9028 North 458 527 37,000  Level Atlanta Center
09:22PM 35.7475 -81.8972 North 458 527 37,000  Level Atlanta Center
09:23PM 35.8767 -81.8911 North 458 527 37,000  Level Atlanta Center
09:24PM 36.0100 -81.8825 North 465 535 37,000  Level Atlanta Center
09:25PM 36.1414 -81.8739 North 471 542 37,000  Level Atlanta Center
09:26PM 36.2853 -81.8700 North 471 542 37,000  Level Atlanta Center
09:28PM 36.5322 -81.8583 North 476 548 37,000  Level Indianapolis Center
09:29PM 36.6642 -81.8525 North 474 545 37,000  Level Indianapolis Center
09:30PM 36.7961 -81.8372 North 482 555 37,000  Level Indianapolis Center
09:31PM 36.9489 -81.7817 16° North 489 563 37,000  Level Indianapolis Center
09:32PM 37.0764 -81.7336 17° North 481 554 37,000  Level Indianapolis Center
09:33PM 37.2028 -81.6850 17° North 478 550 37,000  Level Indianapolis Center
09:34PM 37.3297 -81.6369 17° North 475 547 37,000  Level Indianapolis Center
09:35PM 37.4564 -81.5867 17° North 475 547 37,000  Level Indianapolis Center
09:36PM 37.5836 -81.5367 17° North 478 550 37,000  Level Indianapolis Center
09:37PM 37.7206 -81.4839 17° North 477 549 37,000  Level Indianapolis Center
09:38PM 37.8431 -81.4347 18° North 473 544 37,000  Level Indianapolis Center
09:39PM 37.9719 -81.3858 17° North 476 548 37,000  Level Indianapolis Center
09:40PM 38.0989 -81.3353 17° North 477 549 37,000  Level Indianapolis Center
09:41PM 38.2250 -81.2847 17° North 475 547 37,000  Level Indianapolis Center
09:42PM 38.3497 -81.2347 17° North 474 545 37,000  Level Indianapolis Center
09:43PM 38.4744 -81.1844 18° North 475 547 37,000  Level Indianapolis Center
09:44PM 38.6231 -81.1253 17° North 471 542 37,000  Level Indianapolis Center
09:45PM 38.7464 -81.0742 18° North 471 542 37,000  Level Indianapolis Center
09:46PM 38.8711 -81.0239 17° North 472 543 37,000  Level Indianapolis Center
09:47PM 38.9967 -80.9742 17° North 475 547 37,000  Level Indianapolis Center
09:48PM 39.1217 -80.9242 17° North 472 543 37,000  Level Indianapolis Center
09:49PM 39.2461 -80.8725 18° North 470 541 37,000  Level Indianapolis Center
09:50PM 39.3700 -80.8214 18° North 468 539 37,000  Level Indianapolis Center
09:51PM 39.4961 -80.7697 18° North 474 545 37,000  Level Indianapolis Center
09:52PM 39.6197 -80.7183 18° North 468 539 37,000  Level Indianapolis Center
09:53PM 39.7586 -80.6614 17° North 464 534 37,000  Level Cleveland Center
09:54PM 39.8817 -80.6100 18° North 464 534 37,000  Level Cleveland Center
09:55PM 40.0067 -80.5586 17° North 464 534 37,000  Level Cleveland Center
09:56PM 40.1297 -80.5069 18° North 464 534 37,000 -60 Level Cleveland Center
09:57PM 40.2525 -80.4553 18° North 464 534 36,900 -600 Descending Cleveland Center
09:58PM 40.3756 -80.4033 18° North 459 528 35,900 -900 Descending Cleveland Center
09:59PM 40.4733 -80.3619 18° North 459 528 35,100 -900 Descending Cleveland Center
10:00PM 40.6067 -80.3097 17° North 451 519 34,100 -1,020 Descending Cleveland Center
10:01PM 40.7256 -80.2544 19° North 456 525 33,100 -1,020 Descending Cleveland Center
10:02PM 40.8419 -80.2044 18° North 451 519 32,100 -1,020 Descending Cleveland Center
10:03PM 40.9564 -80.1406 23° Northeast 441 507 31,100 -1,020 Descending Cleveland Center
10:04PM 41.0667 -80.0792 23° Northeast 435 501 30,100 -1,080 Descending Cleveland Center
10:05PM 41.1769 -80.0175 23° Northeast 435 501 29,000 -1,080 Descending Cleveland Center
10:06PM 41.2850 -79.9586 22° Northeast 430 495 28,000 -1,020 Descending Cleveland Center
10:07PM 41.3889 -79.8994 23° Northeast 420 483 27,000 -1,020 Descending Cleveland Center
10:08PM 41.4928 -79.8431 22° Northeast 408 470 26,000 -1,020 Descending Cleveland Center
10:09PM 41.5944 -79.7864 23° Northeast 403 464 25,000 -960 Descending Cleveland Center
10:10PM 41.7108 -79.7181 24° Northeast 398 458 24,100 -960 Descending Cleveland Center
10:11PM 41.8186 -79.6581 23° Northeast 412 474 23,100 -960 Descending Cleveland Center
10:12PM 41.9183 -79.6008 23° Northeast 418 481 22,200 -1,500 Descending Cleveland Center
10:13PM 42.0261 -79.5433 22° Northeast 418 481 20,200 -2,100 Descending Cleveland Center
10:14PM 42.1278 -79.4858 23° Northeast 407 468 18,000 -2,100 Descending Cleveland Center
10:15PM 42.2253 -79.4281 24° Northeast 391 450 16,100 -2,460 Descending Cleveland Center
10:16PM 42.3225 -79.3700 24° Northeast 385 443 13,100 -2,580 Descending Cleveland Center
10:17PM 42.4200 -79.3175 22° Northeast 379 436 11,000 -1,260 Descending Cleveland Center
10:18PM 42.5089 -79.2539 28° Northeast 348 400 10,600 -900 Descending Cleveland Center
10:19PM 42.5622 -79.1906 41° Northeast 306 352 9,300 -1,380 Descending Cleveland Center
10:20PM 42.6261 -79.1158 41° Northeast 276 318 7,900 -1,380 Descending Cleveland Center
10:21PM 42.6814 -79.0467 43° Northeast 258 297 6,600 -1,500 Descending Cleveland Center
10:22PM 42.7347 -78.9861 40° Northeast 258 297 5,000 -1,200 Descending Cleveland Center
10:23PM 42.7839 -78.9283 41° Northeast 253 291 4,300 -660 Descending Cleveland Center
10:24PM 42.8353 -78.8675 41° Northeast 233 268 3,700 -780 Descending Cleveland Center
10:26PM 42.8833 -78.8000 46° Northeast 140 161 2,300 -1,020 Descending Buffalo TRACON
10:27PM 42.9167 -78.7667 36° Northeast 121 139 1,200 -1,140 Descending Buffalo TRACON
10:29PM 42.9333 -78.7167 48° Northeast  Level FlightAware Approximate
10:36PM 42.9404 -78.7306 48° Northeast  Level Estimated